This demonstration page uses our WeatherBlox Daily Observations layout. Learn more.

Left ArrowRight Arrow

Hourly Observations for June 15, 2016

Temp ( °F °C ) Dew Point ( °F °C ) Humidity (%) Winds ( mph kmh ) Pressure ( in mb ) Visibility ( mi km ) Precip ( " mm )
12:54 am 00:54 Clear 72 22.2 61 16.1 68 68 S 3 6 29.69 1005 10 16.0934 0 0
1:54 am 01:54 Clear 70 21.1 61 16.1 73 73 Calm 29.7 1006 10 16.0934 0 0
2:54 am 02:54 Clear 66 18.9 61 16.1 84 84 SSE 6 9 29.7 1006 10 16.0934 0 0
3:54 am 03:54 Clear 68 20 60 15.6 76 76 SSE 6 9 29.7 1006 10 16.0934 0 0
4:54 am 04:54 Clear 64 17.8 59 15 84 84 S 6 9 29.71 1006 10 16.0934 0 0
5:54 am 05:54 Clear 64 17.8 59 15 84 84 S 6 9 29.74 1007 10 16.0934 0 0
6:54 am 06:54 Sunny 67 19.4 60 15.6 79 79 SSE 3 6 29.75 1008 10 16.0934 0 0
7:54 am 07:54 Sunny 71 21.7 62 16.7 73 73 S 5 7 29.77 1008 10 16.0934 0 0
8:54 am 08:54 Sunny 79 26.1 60 15.6 52 52 W 3 6 29.79 1009 10 16.0934 0 0
9:54 am 09:54 Sunny 85 29.4 59 15 42 42 NNW 5 7 29.8 1009 10 16.0934 0 0
10:54 am 10:54 Sunny 89 31.7 60 15.6 38 38 Calm 29.8 1009 10 16.0934 0 0
11:54 am 11:54 Sunny 92 33.3 61 16.1 36 36 VRB 3 6 29.8 1009 10 16.0934 0 0
12:54 pm 12:54 Sunny 95 35 61 16.1 32 32 VRB 5 7 29.8 1009 10 16.0934 0 0
1:54 pm 13:54 Sunny 96 35.6 62 16.7 32 32 VRB 5 7 29.79 1009 10 16.0934 0 0
2:54 pm 14:54 Sunny 100 37.8 52 11.1 20 20 VRB 5 7 29.77 1008 10 16.0934 0 0
3:54 pm 15:54 Sunny 100 37.8 57 13.9 24 24 SSE 6 9 29.77 1008 10 16.0934 0 0
4:54 pm 16:54 Sunny 101 38.3 52 11.1 19 19 SSW 6 9 29.75 1008 10 16.0934 0 0
5:54 pm 17:54 Sunny 100 37.8 51 10.6 19 19 undefined N/A 29.74 1007 10 16.0934 0 0
6:54 pm 18:54 Sunny 99 37.2 52 11.1 21 21 SW 5 7 29.72 1007 10 16.0934 0 0
7:54 pm 19:54 Sunny 95 35 57 13.9 28 28 SSE 6 9 29.74 1007 10 16.0934 0 0
8:54 pm 20:54 Sunny 91 32.8 62 16.7 38 38 ENE 9 15 29.76 1008 10 16.0934 0 0
9:54 pm 21:54 Clear 87 30.6 58 14.4 37 37 SSE 6 9 29.79 1009 10 16.0934 0 0
10:54 pm 22:54 Clear 84 28.9 59 15 43 43 Calm 29.78 1009 10 16.0934 0 0
11:54 pm 23:54 Clear 82 27.8 63 17.2 53 53 Calm 29.8 1009 10 16.0934 0 0

Powered by AerisWeather